createdAt,value
2023-04-18T00:01:38.386Z,98319.97
2023-04-18T00:04:11.853Z,98315.53
2023-04-18T00:06:45.040Z,98318.66
2023-04-18T00:09:18.153Z,98320.00
2023-04-18T00:11:52.970Z,98315.56
2023-04-18T00:14:25.983Z,98316.94
2023-04-18T00:16:59.115Z,98305.59
2023-04-18T00:19:34.293Z,98310.19
2023-04-18T00:22:08.330Z,98301.19
2023-04-18T00:24:41.517Z,98304.09
2023-04-18T00:27:15.903Z,98296.56
2023-04-18T00:29:49.749Z,98293.91
2023-04-18T00:32:22.815Z,98294.03
2023-04-18T00:34:55.930Z,98293.47
2023-04-18T00:37:29.904Z,98292.34
2023-04-18T00:40:02.936Z,98288.34
2023-04-18T00:42:37.420Z,98288.16
2023-04-18T00:45:11.767Z,98290.78
2023-04-18T00:47:44.820Z,98292.34
2023-04-18T00:50:18.038Z,98286.69
2023-04-18T00:52:51.965Z,98282.81
2023-04-18T00:55:25.700Z,98284.72
2023-04-18T00:58:00.246Z,98286.03
2023-04-18T01:00:33.292Z,98275.47
2023-04-18T01:03:06.725Z,98282.81
2023-04-18T01:05:39.873Z,98274.72
2023-04-18T01:08:13.348Z,98275.50
2023-04-18T01:10:46.575Z,98279.41
2023-04-18T01:13:21.829Z,98268.63
2023-04-18T01:15:55.710Z,98267.09
2023-04-18T01:18:31.519Z,98270.81
2023-04-18T01:21:06.146Z,98266.16
2023-04-18T01:23:39.290Z,98261.31
2023-04-18T01:26:13.788Z,98260.78
2023-04-18T01:28:46.821Z,98260.78
2023-04-18T01:31:19.893Z,98264.28
2023-04-18T01:33:52.971Z,98261.22
2023-04-18T01:36:27.185Z,98261.53
2023-04-18T01:39:00.807Z,98258.22
2023-04-18T01:41:35.225Z,98250.03
2023-04-18T01:44:08.265Z,98255.78
2023-04-18T01:46:41.355Z,98251.50
2023-04-18T01:49:14.474Z,98250.03
2023-04-18T01:51:47.505Z,98242.97
2023-04-18T01:54:20.602Z,98247.25
2023-04-18T01:56:54.984Z,98233.09
2023-04-18T01:59:28.109Z,98247.41
2023-04-18T02:02:01.273Z,98246.38
2023-04-18T02:04:34.358Z,98246.41
2023-04-18T02:07:07.720Z,98243.84
2023-04-18T02:09:40.783Z,98241.94
2023-04-18T02:12:15.216Z,98237.88
2023-04-18T02:14:53.491Z,98229.44
2023-04-18T02:17:26.627Z,98234.53
2023-04-18T02:20:00.617Z,98231.13
2023-04-18T02:22:33.651Z,98231.22
2023-04-18T02:25:07.941Z,98232.66
2023-04-18T02:27:42.379Z,98231.25
2023-04-18T02:30:15.983Z,98227.69
2023-04-18T02:32:52.118Z,98223.47
2023-04-18T02:35:26.391Z,98223.72
2023-04-18T02:37:59.388Z,98226.25
2023-04-18T02:40:32.384Z,98225.47
2023-04-18T02:43:06.873Z,98222.81
2023-04-18T02:45:39.944Z,98224.38
2023-04-18T02:48:13.007Z,98225.69
2023-04-18T02:50:46.178Z,98226.59
2023-04-18T02:53:19.324Z,98221.97
2023-04-18T02:55:52.396Z,98220.06
2023-04-18T02:58:27.538Z,98210.69
2023-04-18T03:01:00.623Z,98214.84
2023-04-18T03:03:33.761Z,98218.63
2023-04-18T03:06:07.168Z,98217.09
2023-04-18T03:08:41.068Z,98216.06
2023-04-18T03:11:14.130Z,98221.03
2023-04-18T03:13:48.493Z,98222.69
2023-04-18T03:16:21.817Z,98229.44
2023-04-18T03:18:54.927Z,98228.13
2023-04-18T03:21:28.401Z,98229.91
2023-04-18T03:24:01.596Z,98237.53
2023-04-18T03:26:34.620Z,98234.53
2023-04-18T03:29:09.058Z,98235.53
2023-04-18T03:31:42.383Z,98239.53
2023-04-18T03:34:15.708Z,98241.22
2023-04-18T03:36:48.998Z,98234.56
2023-04-18T03:39:22.212Z,98234.69
2023-04-18T03:41:55.221Z,98240.78
2023-04-18T03:44:29.684Z,98240.09
2023-04-18T03:47:02.795Z,98236.13
2023-04-18T03:49:35.919Z,98225.06
2023-04-18T03:52:08.996Z,98229.38
2023-04-18T03:54:42.092Z,98235.25
2023-04-18T03:57:15.178Z,98226.16
2023-04-18T03:59:49.585Z,98235.25
2023-04-18T04:02:22.783Z,98233.22
2023-04-18T04:04:55.920Z,98236.78
2023-04-18T04:07:28.988Z,98238.31
2023-04-18T04:10:02.140Z,98236.56
2023-04-18T04:12:35.917Z,98236.56
2023-04-18T04:15:12.372Z,98242.97
2023-04-18T04:17:45.425Z,98238.09
2023-04-18T04:20:23.968Z,98241.75
2023-04-18T04:22:58.814Z,98240.66
2023-04-18T04:25:33.229Z,98245.31
2023-04-18T04:28:06.805Z,98244.28
2023-04-18T04:30:41.881Z,98244.63
2023-04-18T04:33:14.883Z,98241.88
2023-04-18T04:35:49.803Z,98240.53
2023-04-18T04:38:24.014Z,98241.09
2023-04-18T04:40:57.413Z,98251.31
2023-04-18T04:43:30.820Z,98244.56
2023-04-18T04:46:07.780Z,98244.56
2023-04-18T04:48:40.916Z,98250.22
2023-04-18T04:51:13.930Z,98242.97
2023-04-18T04:53:47.021Z,98239.53
2023-04-18T04:56:20.591Z,98238.97
2023-04-18T04:58:56.120Z,98243.63
2023-04-18T05:01:30.648Z,98248.72
2023-04-18T05:04:03.973Z,98244.22
2023-04-18T05:06:40.058Z,98246.63
2023-04-18T05:09:14.501Z,98249.97
2023-04-18T05:11:49.357Z,98248.50
2023-04-18T05:14:22.422Z,98251.94
2023-04-18T05:16:56.976Z,98256.16
2023-04-18T05:19:29.996Z,98249.94
2023-04-18T05:22:03.148Z,98257.25
2023-04-18T05:24:36.233Z,98255.63
2023-04-18T05:27:09.906Z,98265.09
2023-04-18T05:29:43.058Z,98271.53
2023-04-18T05:32:17.666Z,98265.44
2023-04-18T05:34:51.111Z,98267.13
2023-04-18T05:37:24.162Z,98268.38
2023-04-18T05:39:59.310Z,98265.00
2023-04-18T05:42:33.617Z,98261.03
2023-04-18T05:45:08.081Z,98274.19
2023-04-18T05:47:42.505Z,98267.69
2023-04-18T05:50:15.569Z,98275.56
2023-04-18T05:52:48.732Z,98265.91
2023-04-18T05:55:21.964Z,98263.34
2023-04-18T05:57:55.041Z,98265.72
2023-04-18T06:00:28.184Z,98262.78
2023-04-18T06:03:02.777Z,98264.84
2023-04-18T06:05:36.137Z,98266.28
2023-04-18T06:08:09.351Z,98268.38
2023-04-18T06:10:42.420Z,98264.22
2023-04-18T06:13:15.512Z,98269.66
2023-04-18T06:15:48.587Z,98270.06
2023-04-18T06:18:23.044Z,98281.41
2023-04-18T06:20:56.179Z,98273.88
2023-04-18T06:23:29.306Z,98282.06
2023-04-18T06:26:02.398Z,98289.34
2023-04-18T06:28:35.650Z,98291.19
2023-04-18T06:31:09.328Z,98279.09
2023-04-18T06:33:43.833Z,98283.06
2023-04-18T06:36:16.923Z,98282.91
2023-04-18T06:38:50.178Z,98288.09
2023-04-18T06:41:25.118Z,98291.97
2023-04-18T06:44:03.353Z,98291.00
2023-04-18T06:46:37.651Z,98293.25
2023-04-18T06:49:12.133Z,98297.19
2023-04-18T06:51:45.212Z,98306.53
2023-04-18T06:54:18.251Z,98293.22
2023-04-18T06:56:51.408Z,98294.72
2023-04-18T06:59:24.480Z,98301.63
2023-04-18T07:01:57.757Z,98302.56
2023-04-18T07:04:32.205Z,98298.19
2023-04-18T07:07:05.771Z,98303.13
2023-04-18T07:09:38.801Z,98297.28
2023-04-18T07:12:11.858Z,98298.44
2023-04-18T07:14:44.914Z,98310.88
2023-04-18T07:17:18.030Z,98310.38
2023-04-18T07:19:52.466Z,98315.13
2023-04-18T07:22:25.543Z,98312.66
2023-04-18T07:24:58.621Z,98311.97
2023-04-18T07:27:31.830Z,98304.22
2023-04-18T07:30:05.887Z,98310.88
2023-04-18T07:32:39.188Z,98300.91
2023-04-18T07:35:13.610Z,98301.16
2023-04-18T07:37:46.887Z,98303.88
2023-04-18T07:40:20.132Z,98295.59
2023-04-18T07:42:53.155Z,98295.72
2023-04-18T07:45:26.428Z,98304.75
2023-04-18T07:47:59.528Z,98300.28
2023-04-18T07:50:33.981Z,98302.56
2023-04-18T07:53:08.224Z,98302.19
2023-04-18T07:55:41.269Z,98304.81
2023-04-18T07:58:14.592Z,98307.84
2023-04-18T08:00:47.977Z,98309.22
2023-04-18T08:03:21.338Z,98318.16
2023-04-18T08:05:55.877Z,98318.34
2023-04-18T08:08:29.090Z,98313.03
2023-04-18T08:11:02.467Z,98311.06
2023-04-18T08:13:35.633Z,98311.06
2023-04-18T08:16:09.620Z,98319.66
2023-04-18T08:18:42.679Z,98318.16
2023-04-18T08:21:17.362Z,98317.84
2023-04-18T08:23:50.428Z,98313.84
2023-04-18T08:26:23.489Z,98326.16
2023-04-18T08:28:56.512Z,98330.84
2023-04-18T08:31:31.658Z,98320.13
2023-04-18T08:34:05.205Z,98317.06
2023-04-18T08:36:39.693Z,98325.81
2023-04-18T08:39:13.551Z,98333.28
2023-04-18T08:41:54.870Z,98331.94
2023-04-18T08:44:29.438Z,98334.06
2023-04-18T08:47:03.159Z,98334.06
2023-04-18T08:49:36.281Z,98327.19
2023-04-18T08:52:14.466Z,98329.50
2023-04-18T08:54:49.082Z,98336.63
2023-04-18T08:57:27.360Z,98330.94
2023-04-18T09:00:02.065Z,98336.84
2023-04-18T09:02:42.075Z,98337.22
2023-04-18T09:05:19.135Z,98331.00
2023-04-18T09:07:56.117Z,98329.84
2023-04-18T09:10:32.559Z,98333.91
2023-04-18T09:13:05.661Z,98337.84
2023-04-18T09:15:38.680Z,98347.75
2023-04-18T09:18:11.822Z,98329.38
2023-04-18T09:20:47.588Z,98358.00
2023-04-18T09:23:26.185Z,98341.13
2023-04-18T09:25:59.222Z,98328.06
2023-04-18T09:28:34.281Z,98334.50
2023-04-18T09:31:11.975Z,98335.47
2023-04-18T09:33:54.384Z,98335.22
2023-04-18T09:36:28.401Z,98338.59
2023-04-18T09:39:03.723Z,98336.78
2023-04-18T09:41:36.738Z,98328.66
2023-04-18T09:44:14.941Z,98339.00
2023-04-18T09:46:49.435Z,98330.50
2023-04-18T09:49:23.042Z,98331.44
2023-04-18T09:51:57.141Z,98326.91
2023-04-18T09:54:34.078Z,98325.50
2023-04-18T09:57:11.263Z,98324.00
2023-04-18T09:59:52.544Z,98323.38
2023-04-18T10:02:29.360Z,98327.59
2023-04-18T10:05:05.896Z,98323.53
2023-04-18T10:07:39.729Z,98326.53
2023-04-18T10:10:14.660Z,98314.69
2023-04-18T10:12:50.749Z,98320.00
2023-04-18T10:15:26.379Z,98303.28
2023-04-18T10:18:05.902Z,98306.44
2023-04-18T10:20:42.875Z,98306.19
2023-04-18T10:23:37.482Z,98314.97
2023-04-18T10:26:12.220Z,98309.00
2023-04-18T10:28:54.378Z,98308.56
2023-04-18T10:31:29.687Z,98308.94
2023-04-18T10:34:07.490Z,98306.84
2023-04-18T10:37:07.198Z,98302.84
2023-04-18T10:40:00.282Z,98320.56
2023-04-18T10:43:02.397Z,98306.28
2023-04-18T10:45:36.597Z,98305.16
2023-04-18T10:48:25.128Z,98303.41
2023-04-18T10:51:18.867Z,98301.13
2023-04-18T10:53:55.590Z,98305.28
2023-04-18T10:56:29.267Z,98301.75
2023-04-18T10:59:05.004Z,98296.88
2023-04-18T11:01:40.687Z,98295.69
2023-04-18T11:04:15.423Z,98288.78
2023-04-18T11:06:50.584Z,98317.53
2023-04-18T11:09:24.108Z,98295.69
2023-04-18T11:12:08.305Z,98292.03
2023-04-18T11:14:43.370Z,98292.66
2023-04-18T11:17:22.226Z,98284.59
2023-04-18T11:20:04.985Z,98282.31
2023-04-18T11:22:48.560Z,98280.72
2023-04-18T11:25:25.998Z,98281.50
2023-04-18T11:28:01.142Z,98284.16
2023-04-18T11:30:40.267Z,98284.44
2023-04-18T11:33:14.967Z,98296.34
2023-04-18T11:35:48.277Z,98282.84
2023-04-18T11:38:22.769Z,98292.00
2023-04-18T11:40:57.505Z,98280.63
2023-04-18T11:43:30.608Z,98279.19
2023-04-18T11:46:05.101Z,98276.56
2023-04-18T11:48:39.367Z,98283.16
2023-04-18T11:51:35.633Z,98268.88
2023-04-18T11:54:39.633Z,98276.19
2023-04-18T11:57:24.908Z,98287.13
2023-04-18T12:00:01.600Z,98311.19
2023-04-18T12:02:44.062Z,98289.88
2023-04-18T12:05:26.533Z,98288.75
2023-04-18T12:08:07.968Z,98289.13
2023-04-18T12:10:48.015Z,98291.84
2023-04-18T12:13:26.838Z,98283.78
2023-04-18T12:16:02.873Z,98296.41
2023-04-18T12:18:37.300Z,98289.78
2023-04-18T12:21:10.717Z,98294.72
2023-04-18T12:23:45.917Z,98284.03
2023-04-18T12:26:19.167Z,98284.47
2023-04-18T12:28:53.735Z,98291.44
2023-04-18T12:31:28.625Z,98285.06
2023-04-18T12:34:03.043Z,98307.59
2023-04-18T12:36:36.171Z,98286.59
2023-04-18T12:39:09.475Z,98288.69
2023-04-18T12:41:42.464Z,98284.34
2023-04-18T12:44:15.681Z,98275.13
2023-04-18T12:46:48.803Z,98281.47
2023-04-18T12:49:23.164Z,98285.63
2023-04-18T12:51:56.091Z,98277.31
2023-04-18T12:54:29.073Z,98289.41
2023-04-18T12:57:03.304Z,98274.69
2023-04-18T12:59:36.255Z,98280.72
2023-04-18T13:02:09.355Z,98283.88
2023-04-18T13:04:43.954Z,98279.88
2023-04-18T13:07:17.150Z,98281.44
2023-04-18T13:09:50.319Z,98288.00
2023-04-18T13:12:23.273Z,98280.00
2023-04-18T13:14:56.321Z,98283.44
2023-04-18T13:17:29.458Z,98294.97
2023-04-18T13:20:04.809Z,98293.91
2023-04-18T13:22:38.261Z,98280.13
2023-04-18T13:25:12.116Z,98282.56
2023-04-18T13:27:45.860Z,98288.63
2023-04-18T13:30:19.202Z,98289.50
2023-04-18T13:32:52.265Z,98309.63
2023-04-18T13:35:26.727Z,98295.00
2023-04-18T13:37:59.923Z,98294.81
2023-04-18T13:40:33.481Z,98306.63
2023-04-18T13:43:06.477Z,98302.34
2023-04-18T13:45:39.653Z,98295.88
2023-04-18T13:48:14.434Z,98294.47
2023-04-18T13:50:51.239Z,98292.91
2023-04-18T13:53:24.379Z,98291.78
2023-04-18T13:55:57.396Z,98294.78
2023-04-18T13:58:30.634Z,98288.44
2023-04-18T14:01:03.703Z,98288.63
2023-04-18T14:03:38.795Z,98283.56
2023-04-18T14:06:14.398Z,98283.31
2023-04-18T14:08:47.432Z,98281.16
2023-04-18T14:11:21.153Z,98297.03
2023-04-18T14:13:54.275Z,98284.50
2023-04-18T14:16:29.400Z,98277.34
2023-04-18T14:19:03.666Z,98285.28
2023-04-18T14:21:38.052Z,98279.38
2023-04-18T14:24:11.102Z,98273.22
2023-04-18T14:26:44.171Z,98278.34
2023-04-18T14:29:17.316Z,98278.44
2023-04-18T14:31:51.243Z,98276.78
2023-04-18T14:34:24.278Z,98281.59
2023-04-18T14:36:58.670Z,98284.34
2023-04-18T14:39:32.052Z,98269.19
2023-04-18T14:42:05.636Z,98277.03
2023-04-18T14:44:38.830Z,98274.56
2023-04-18T14:47:11.950Z,98272.88
2023-04-18T14:49:45.031Z,98277.69
2023-04-18T14:52:19.427Z,98272.81
2023-04-18T14:54:52.613Z,98283.91
2023-04-18T14:57:26.497Z,98284.19
2023-04-18T14:59:59.537Z,98272.41
2023-04-18T15:02:32.669Z,98277.78
2023-04-18T15:05:07.514Z,98272.56
2023-04-18T15:07:43.480Z,98275.88
2023-04-18T15:10:16.693Z,98280.19
2023-04-18T15:12:51.089Z,98279.50
2023-04-18T15:15:25.183Z,98268.13
2023-04-18T15:17:58.429Z,98287.22
2023-04-18T15:20:31.836Z,98284.59
2023-04-18T15:23:06.432Z,98284.56
2023-04-18T15:25:39.496Z,98294.16
2023-04-18T15:28:13.501Z,98289.69
2023-04-18T15:30:46.790Z,98299.63
2023-04-18T15:33:20.498Z,98291.50
2023-04-18T15:35:53.769Z,98292.50
2023-04-18T15:38:28.183Z,98301.06
2023-04-18T15:41:01.202Z,98292.91
2023-04-18T15:43:34.282Z,98303.31
2023-04-18T15:46:07.380Z,98299.69
2023-04-18T15:48:40.502Z,98303.53
2023-04-18T15:51:13.536Z,98303.34
2023-04-18T15:53:47.957Z,98303.63
2023-04-18T15:56:21.101Z,98306.53
2023-04-18T15:58:57.332Z,98301.88
2023-04-18T16:01:30.797Z,98301.28
2023-04-18T16:04:03.992Z,98308.34
2023-04-18T16:06:37.497Z,98308.28
2023-04-18T16:09:11.932Z,98307.41
2023-04-18T16:11:45.106Z,98314.72
2023-04-18T16:14:18.285Z,98314.72
2023-04-18T16:16:52.682Z,98312.53
2023-04-18T16:19:25.844Z,98318.97
2023-04-18T16:21:58.986Z,98318.16
2023-04-18T16:24:33.333Z,98315.13
2023-04-18T16:27:06.654Z,98320.66
2023-04-18T16:29:39.674Z,98314.88
2023-04-18T16:32:12.709Z,98317.69
2023-04-18T16:34:45.867Z,98324.97
2023-04-18T16:37:18.894Z,98319.44
2023-04-18T16:39:56.522Z,98321.94
2023-04-18T16:46:03.210Z,98310.44
2023-04-18T16:48:38.653Z,98315.44
2023-04-18T16:51:13.091Z,98319.59
2023-04-18T16:53:46.722Z,98321.44
2023-04-18T16:56:21.148Z,98319.13
2023-04-18T16:58:54.255Z,98316.34
2023-04-18T17:01:27.346Z,98322.03
2023-04-18T17:04:00.513Z,98326.03
2023-04-18T17:06:34.018Z,98329.16
2023-04-18T17:09:07.164Z,98319.59
2023-04-18T17:11:41.952Z,98325.03
2023-04-18T17:14:15.288Z,98330.97
2023-04-18T17:16:50.702Z,98327.06
2023-04-18T17:19:26.286Z,98333.78
2023-04-18T17:21:59.358Z,98337.03
2023-04-18T17:24:32.568Z,98333.81
2023-04-18T17:27:06.961Z,98328.50
2023-04-18T17:29:40.867Z,98339.69
2023-04-18T17:32:14.556Z,98339.84
2023-04-18T17:34:47.870Z,98340.47
2023-04-18T17:37:22.363Z,98336.03
2023-04-18T17:39:57.722Z,98344.28
2023-04-18T17:42:32.293Z,98339.69
2023-04-18T17:45:06.632Z,98345.19
2023-04-18T17:47:40.817Z,98341.50
2023-04-18T17:50:13.941Z,98350.88
2023-04-18T17:52:47.205Z,98349.03
2023-04-18T17:55:20.643Z,98349.47
2023-04-18T17:57:54.986Z,98356.81
2023-04-18T18:00:28.383Z,98360.19
2023-04-18T18:03:02.451Z,98356.94
2023-04-18T18:05:35.614Z,98361.53
2023-04-18T18:08:08.752Z,98358.28
2023-04-18T18:10:42.623Z,98363.69
2023-04-18T18:13:16.995Z,98370.56
2023-04-18T18:15:50.021Z,98378.91
2023-04-18T18:18:24.276Z,98371.97
2023-04-18T18:20:58.128Z,98379.22
2023-04-18T18:23:31.265Z,98377.75
2023-04-18T18:26:06.517Z,98394.00
2023-04-18T18:28:40.911Z,98377.13
2023-04-18T18:31:13.958Z,98381.09
2023-04-18T18:33:47.012Z,98385.06
2023-04-18T18:36:20.110Z,98384.63
2023-04-18T18:38:53.103Z,98391.63
2023-04-18T18:41:26.197Z,98393.03
2023-04-18T18:44:00.665Z,98393.72
2023-04-18T18:46:33.780Z,98400.34
2023-04-18T18:49:08.032Z,98400.41
2023-04-18T18:51:41.246Z,98403.25
2023-04-18T18:54:14.377Z,98402.31
2023-04-18T18:56:47.385Z,98407.63
2023-04-18T18:59:21.773Z,98408.97
2023-04-18T19:01:54.844Z,98408.47
2023-04-18T19:04:28.157Z,98406.13
2023-04-18T19:07:01.237Z,98414.38
2023-04-18T19:09:34.301Z,98418.63
2023-04-18T19:12:08.179Z,98423.25
2023-04-18T19:14:42.589Z,98419.03
2023-04-18T19:17:17.603Z,98417.66
2023-04-18T19:19:50.672Z,98421.03
2023-04-18T19:22:23.701Z,98421.91
2023-04-18T19:24:57.273Z,98421.81
2023-04-18T19:27:31.115Z,98436.66
2023-04-18T19:30:06.888Z,98437.69
2023-04-18T19:32:40.112Z,98435.03
2023-04-18T19:35:13.341Z,98449.50
2023-04-18T19:37:46.710Z,98442.25
2023-04-18T19:40:20.007Z,98440.25
2023-04-18T19:42:53.247Z,98441.59
2023-04-18T19:45:27.672Z,98445.41
2023-04-18T19:48:00.838Z,98448.50
2023-04-18T19:50:34.060Z,98449.81
2023-04-18T19:53:07.102Z,98441.19
2023-04-18T19:55:40.102Z,98451.69
2023-04-18T19:58:13.161Z,98440.25
2023-04-18T20:00:47.554Z,98447.94
2023-04-18T20:03:20.716Z,98448.94
2023-04-18T20:05:53.913Z,98453.19
2023-04-18T20:08:26.959Z,98445.97
2023-04-18T20:11:00.003Z,98454.06
2023-04-18T20:13:33.039Z,98447.69
2023-04-18T20:16:10.928Z,98452.81
2023-04-18T20:18:45.619Z,98454.06
2023-04-18T20:21:18.685Z,98456.25
2023-04-18T20:23:51.704Z,98456.25
2023-04-18T20:26:24.813Z,98460.56
2023-04-18T20:28:57.845Z,98450.44
2023-04-18T20:31:32.221Z,98454.69
2023-04-18T20:34:05.237Z,98452.81
2023-04-18T20:36:41.511Z,98450.47
2023-04-18T20:39:15.414Z,98457.16
2023-04-18T20:41:51.444Z,98456.06
2023-04-18T20:44:24.868Z,98462.25
2023-04-18T20:46:59.407Z,98454.09
2023-04-18T20:49:34.023Z,98456.47
2023-04-18T20:52:09.837Z,98460.41
2023-04-18T20:54:43.041Z,98459.59
2023-04-18T20:57:16.096Z,98466.00
2023-04-18T20:59:49.088Z,98458.81
2023-04-18T21:02:23.571Z,98457.31
2023-04-18T21:04:56.688Z,98451.81
2023-04-18T21:07:31.114Z,98461.28
2023-04-18T21:10:04.518Z,98456.16
2023-04-18T21:12:37.554Z,98464.81
2023-04-18T21:15:11.783Z,98462.25
2023-04-18T21:17:46.430Z,98462.94
2023-04-18T21:20:20.174Z,98462.56
2023-04-18T21:22:53.212Z,98466.88
2023-04-18T21:25:26.363Z,98467.25
2023-04-18T21:28:00.137Z,98469.25
2023-04-18T21:30:33.490Z,98463.72
2023-04-18T21:33:07.879Z,98469.06
2023-04-18T21:35:40.954Z,98463.53
2023-04-18T21:38:14.000Z,98464.50
2023-04-18T21:40:47.018Z,98470.91
2023-04-18T21:43:20.049Z,98466.69
2023-04-18T21:45:53.183Z,98466.97
2023-04-18T21:48:27.579Z,98463.53
2023-04-18T21:51:01.004Z,98460.59
2023-04-18T21:53:34.397Z,98470.63
2023-04-18T21:56:08.836Z,98464.72
2023-04-18T21:58:42.303Z,98459.81
2023-04-18T22:01:15.469Z,98455.97
2023-04-18T22:03:50.154Z,98464.72
2023-04-18T22:06:23.553Z,98460.88
2023-04-18T22:08:56.588Z,98460.78
2023-04-18T22:11:29.789Z,98457.25
2023-04-18T22:14:02.795Z,98460.59
2023-04-18T22:16:35.859Z,98454.97
2023-04-18T22:19:10.873Z,98461.56
2023-04-18T22:21:43.936Z,98451.81
2023-04-18T22:24:18.285Z,98454.66
2023-04-18T22:26:51.399Z,98450.50
2023-04-18T22:29:24.479Z,98456.25
2023-04-18T22:31:57.549Z,98446.59
2023-04-18T22:34:32.008Z,98456.78
2023-04-18T22:37:05.126Z,98460.75
2023-04-18T22:39:38.132Z,98458.97
2023-04-18T22:42:11.123Z,98457.78
2023-04-18T22:44:44.183Z,98465.44
2023-04-18T22:47:17.186Z,98456.50
2023-04-18T22:49:51.780Z,98461.13
2023-04-18T22:52:26.028Z,98463.97
2023-04-18T22:54:59.025Z,98461.91
2023-04-18T22:57:32.103Z,98466.00
2023-04-18T23:00:06.806Z,98468.00
2023-04-18T23:02:39.989Z,98467.16
2023-04-18T23:05:15.956Z,98468.00
2023-04-18T23:07:48.974Z,98458.75
2023-04-18T23:10:23.414Z,98460.63
2023-04-18T23:12:56.458Z,98467.91
2023-04-18T23:15:29.440Z,98464.44
2023-04-18T23:18:02.492Z,98461.47
2023-04-18T23:20:37.834Z,98467.75
2023-04-18T23:23:10.831Z,98465.25
2023-04-18T23:25:44.144Z,98463.78
2023-04-18T23:28:17.214Z,98459.56
2023-04-18T23:30:50.754Z,98460.56
2023-04-18T23:33:23.753Z,98462.09
2023-04-18T23:35:58.183Z,98458.94
2023-04-18T23:38:32.304Z,98462.44
2023-04-18T23:41:05.550Z,98452.97
2023-04-18T23:43:38.531Z,98451.22
2023-04-18T23:46:12.168Z,98460.44
2023-04-18T23:48:45.212Z,98456.16
2023-04-18T23:51:19.615Z,98456.56
2023-04-18T23:53:52.580Z,98453.78
2023-04-18T23:56:25.643Z,98452.97
2023-04-18T23:58:58.859Z,98457.44
